< < Back
Terminal Aerodrome Forecast


Current Version              Previous Versions:   1  2  3  4  5  6  7  8  9  

Terminal Aerodrome Forecast

571
FTUS42 KJAX 250900 AAB
TAFSSI
TAF AMD
KSSI 250906Z 2509/2606 29010G20KT P6SM FEW020 OVC100
     FM251900 33007KT P6SM BKN120
     FM260200 35002KT P6SM SCT250=



Latest METAR

652
SAUS70 KWBC 252200 RRI
MTRSSI
METAR KSSI 252153Z AUTO 28004KT 10SM CLR 14/05 A3017 RMK AO2 SLP217
T01440050


USA.gov is the U.S. government's official web portal to all federal, state and local government web resources and services.